Terminal Aerodrome Forecast
Issued by NWS Sioux Falls, SD

Home | Current Version | Previous Version | Text Only | Print | Product List | Glossary Off
Versions: 1 2 3 4 5 6 7 8 9 10 11 12 13 14 15 16

000
FTUS43 KFSD 192320
TAFHON
TAF
KHON 192320Z 2000/2024 18015G22KT P6SM VCTS BKN060CB
     FM200300 24014KT 4SM TSRA OVC040CB
     FM200400 31014G18KT P6SM BKN060
     FM200700 28007KT P6SM SCT150
     FM201800 23010KT P6SM SKC=

USA.gov is the U.S. government's official web portal to all federal, state and local government web resources and services.